Aviation Digital Data Service (ADDS)

Output produced by METARs form (0409 UTC 24 January 2019)
found at http://www.aviationweather.gov/metar/data/
 
METAR text: VTPP 240300Z 00000KT 6000 NSC 26/19 Q1016 NOSIG
Conditions at: VTPP (PHITSANULOK , TH) observed 0300 UTC 24 January 2019
Temperature: 26.0°C (79°F)
Dewpoint: 19.0°C (66°F) [RH = 65%]
Pressure (altimeter): 30.00 inches Hg (1016.0 mb)
Winds: calm
Visibility: 4 miles ( 6 km)
Ceiling: at least 12,000 feet AGL
Clouds: sky clear below 12,000 feet AGL
Weather: no significant weather observed at this time

METAR text: VTPP 240200Z VRB02KT 6000 NSC 24/20 Q1016 NOSIG
Conditions at: VTPP (PHITSANULOK , TH) observed 0200 UTC 24 January 2019
Temperature: 24.0°C (75°F)
Dewpoint: 20.0°C (68°F) [RH = 78%]
Pressure (altimeter): 30.00 inches Hg (1016.0 mb)
Winds: variable direction winds at 2 MPH (2 knots; 1.0 m/s)
Visibility: 4 miles ( 6 km)
Ceiling: at least 12,000 feet AGL
Clouds: sky clear below 12,000 feet AGL
Weather: no significant weather observed at this time

METAR text: VTPP 240100Z 00000KT 5000 BR NSC 21/19 Q1015 NOSIG
Conditions at: VTPP (PHITSANULOK , TH) observed 0100 UTC 24 January 2019
Temperature: 21.0°C (70°F)
Dewpoint: 19.0°C (66°F) [RH = 88%]
Pressure (altimeter): 29.97 inches Hg (1015.0 mb)
Winds: calm
Visibility: 3 miles ( 5 km)
Ceiling: at least 12,000 feet AGL
Clouds: sky clear below 12,000 feet AGL
Weather: BR  (mist)

METAR text: VTPP 240000Z 00000KT 3200 BR NSC 20/17 Q1015 BECMG FM0100 5000
Conditions at: VTPP (PHITSANULOK , TH) observed 0000 UTC 24 January 2019
Temperature: 20.0°C (68°F)
Dewpoint: 17.0°C (63°F) [RH = 83%]
Pressure (altimeter): 29.97 inches Hg (1015.0 mb)
Winds: calm
Visibility: 1.99 miles (3.20 km)
Ceiling: at least 12,000 feet AGL
Clouds: sky clear below 12,000 feet AGL
Weather: BR  (mist)

METAR text: VTPP 232300Z 00000KT 4000 BR NSC 20/17 Q1014 NOSIG
Conditions at: VTPP (PHITSANULOK , TH) observed 2300 UTC 23 January 2019
Temperature: 20.0°C (68°F)
Dewpoint: 17.0°C (63°F) [RH = 83%]
Pressure (altimeter): 29.94 inches Hg (1014.0 mb)
Winds: calm
Visibility: 2.49 miles (4.01 km)
Ceiling: at least 12,000 feet AGL
Clouds: sky clear below 12,000 feet AGL
Weather: BR  (mist)

METAR text: VTPP 231300Z 00000KT 9999 FEW030 25/16 Q1013 NOSIG
Conditions at: VTPP (PHITSANULOK , TH) observed 1300 UTC 23 January 2019
Temperature: 25.0°C (77°F)
Dewpoint: 16.0°C (61°F) [RH = 57%]
Pressure (altimeter): 29.91 inches Hg (1013.0 mb)
Winds: calm
Visibility: 6 or more miles (10+ km)
Ceiling: at least 12,000 feet AGL
Clouds: few clouds at 3000 feet AGL
Weather: no significant weather observed at this time

METAR text: VTPP 231200Z 00000KT CAVOK 27/15 Q1012 NOSIG
Conditions at: VTPP (PHITSANULOK , TH) observed 1200 UTC 23 January 2019
Temperature: 27.0°C (81°F)
Dewpoint: 15.0°C (59°F) [RH = 48%]
Pressure (altimeter): 29.88 inches Hg (1012.0 mb)
Winds: calm
Visibility: 6 or more miles (10+ km)
Ceiling: ceiling and visibility are OK
Clouds: unknown
Weather: no significant weather observed at this time

METAR text: VTPP 231100Z 32003KT CAVOK 30/14 Q1012 NOSIG
Conditions at: VTPP (PHITSANULOK , TH) observed 1100 UTC 23 January 2019
Temperature: 30.0°C (86°F)
Dewpoint: 14.0°C (57°F) [RH = 38%]
Pressure (altimeter): 29.88 inches Hg (1012.0 mb)
Winds: from the NW (320 degrees) at 3 MPH (3 knots; 1.5 m/s)
Visibility: 6 or more miles (10+ km)
Ceiling: ceiling and visibility are OK
Clouds: unknown
Weather: no significant weather observed at this time

METAR text: VTPP 231000Z 26003KT CAVOK 31/13 Q1012 NOSIG
Conditions at: VTPP (PHITSANULOK , TH) observed 1000 UTC 23 January 2019
Temperature: 31.0°C (88°F)
Dewpoint: 13.0°C (55°F) [RH = 33%]
Pressure (altimeter): 29.88 inches Hg (1012.0 mb)
Winds: from the W (260 degrees) at 3 MPH (3 knots; 1.5 m/s)
Visibility: 6 or more miles (10+ km)
Ceiling: ceiling and visibility are OK
Clouds: unknown
Weather: no significant weather observed at this time

METAR text: VTPP 230900Z 32005KT 260V060 9999 FEW035 32/14 Q1011 NOSIG
Conditions at: VTPP (PHITSANULOK , TH) observed 0900 UTC 23 January 2019
Temperature: 32.0°C (90°F)
Dewpoint: 14.0°C (57°F) [RH = 34%]
Pressure (altimeter): 29.85 inches Hg (1011.0 mb)
Winds: from the NW (320 degrees) at 6 MPH (5 knots; 2.6 m/s)
Visibility: 6 or more miles (10+ km)
Ceiling: at least 12,000 feet AGL
Clouds: few clouds at 3500 feet AGL
Weather: no significant weather observed at this time

METAR text: VTPP 230800Z VRB03KT 9999 FEW035 32/15 Q1012 NOSIG
Conditions at: VTPP (PHITSANULOK , TH) observed 0800 UTC 23 January 2019
Temperature: 32.0°C (90°F)
Dewpoint: 15.0°C (59°F) [RH = 36%]
Pressure (altimeter): 29.88 inches Hg (1012.0 mb)
Winds: variable direction winds at 3 MPH (3 knots; 1.5 m/s)
Visibility: 6 or more miles (10+ km)
Ceiling: at least 12,000 feet AGL
Clouds: few clouds at 3500 feet AGL
Weather: no significant weather observed at this time

METAR text: VTPP 230700Z 30005KT 250V350 9999 FEW030 31/16 Q1013 NOSIG
Conditions at: VTPP (PHITSANULOK , TH) observed 0700 UTC 23 January 2019
Temperature: 31.0°C (88°F)
Dewpoint: 16.0°C (61°F) [RH = 40%]
Pressure (altimeter): 29.91 inches Hg (1013.0 mb)
Winds: from the WNW (300 degrees) at 6 MPH (5 knots; 2.6 m/s)
Visibility: 6 or more miles (10+ km)
Ceiling: at least 12,000 feet AGL
Clouds: few clouds at 3000 feet AGL
Weather: no significant weather observed at this time

METAR text: VTPP 230600Z 32007KT 290V050 9999 FEW030 31/16 Q1014 NOSIG
Conditions at: VTPP (PHITSANULOK , TH) observed 0600 UTC 23 January 2019
Temperature: 31.0°C (88°F)
Dewpoint: 16.0°C (61°F) [RH = 40%]
Pressure (altimeter): 29.94 inches Hg (1014.0 mb)
Winds: from the NW (320 degrees) at 8 MPH (7 knots; 3.6 m/s)
Visibility: 6 or more miles (10+ km)
Ceiling: at least 12,000 feet AGL
Clouds: few clouds at 3000 feet AGL
Weather: no significant weather observed at this time

METAR text: VTPP 230500Z VRB02KT CAVOK 30/15 Q1015 NOSIG
Conditions at: VTPP (PHITSANULOK , TH) observed 0500 UTC 23 January 2019
Temperature: 30.0°C (86°F)
Dewpoint: 15.0°C (59°F) [RH = 40%]
Pressure (altimeter): 29.97 inches Hg (1015.0 mb)
Winds: variable direction winds at 2 MPH (2 knots; 1.0 m/s)
Visibility: 6 or more miles (10+ km)
Ceiling: ceiling and visibility are OK
Clouds: unknown
Weather: no significant weather observed at this time

METAR text: VTPP 230400Z VRB03KT CAVOK 29/16 Q1016 NOSIG
Conditions at: VTPP (PHITSANULOK , TH) observed 0400 UTC 23 January 2019
Temperature: 29.0°C (84°F)
Dewpoint: 16.0°C (61°F) [RH = 45%]
Pressure (altimeter): 30.00 inches Hg (1016.0 mb)
Winds: variable direction winds at 3 MPH (3 knots; 1.5 m/s)
Visibility: 6 or more miles (10+ km)
Ceiling: ceiling and visibility are OK
Clouds: unknown
Weather: no significant weather observed at this time

METAR text: VTPP 230300Z 01003KT 330V050 CAVOK 27/17 Q1017 NOSIG
Conditions at: VTPP (PHITSANULOK , TH) observed 0300 UTC 23 January 2019
Temperature: 27.0°C (81°F)
Dewpoint: 17.0°C (63°F) [RH = 54%]
Pressure (altimeter): 30.03 inches Hg (1017.0 mb)
Winds: from the N (10 degrees) at 3 MPH (3 knots; 1.5 m/s)
Visibility: 6 or more miles (10+ km)
Ceiling: ceiling and visibility are OK
Clouds: unknown
Weather: no significant weather observed at this time

METAR text: VTPP 230200Z VRB02KT CAVOK 24/18 Q1017 NOSIG
Conditions at: VTPP (PHITSANULOK , TH) observed 0200 UTC 23 January 2019
Temperature: 24.0°C (75°F)
Dewpoint: 18.0°C (64°F) [RH = 69%]
Pressure (altimeter): 30.03 inches Hg (1017.0 mb)
Winds: variable direction winds at 2 MPH (2 knots; 1.0 m/s)
Visibility: 6 or more miles (10+ km)
Ceiling: ceiling and visibility are OK
Clouds: unknown
Weather: no significant weather observed at this time

METAR text: VTPP 230100Z 00000KT CAVOK 22/18 Q1016 NOSIG
Conditions at: VTPP (PHITSANULOK , TH) observed 0100 UTC 23 January 2019
Temperature: 22.0°C (72°F)
Dewpoint: 18.0°C (64°F) [RH = 78%]
Pressure (altimeter): 30.00 inches Hg (1016.0 mb)
Winds: calm
Visibility: 6 or more miles (10+ km)
Ceiling: ceiling and visibility are OK
Clouds: unknown
Weather: no significant weather observed at this time

METAR text: VTPP 230000Z VRB02KT 9999 FEW030 BKN083 20/16 Q1015 NOSIG
Conditions at: VTPP (PHITSANULOK , TH) observed 0000 UTC 23 January 2019
Temperature: 20.0°C (68°F)
Dewpoint: 16.0°C (61°F) [RH = 78%]
Pressure (altimeter): 29.97 inches Hg (1015.0 mb)
Winds: variable direction winds at 2 MPH (2 knots; 1.0 m/s)
Visibility: 6 or more miles (10+ km)
Ceiling: 8300 feet AGL
Clouds: few clouds at 3000 feet AGL
broken clouds at 8300 feet AGL
Weather: no significant weather observed at this time

METAR text: VTPP 222300Z 00000KT CAVOK 21/17 Q1015 NOSIG
Conditions at: VTPP (PHITSANULOK , TH) observed 2300 UTC 22 January 2019
Temperature: 21.0°C (70°F)
Dewpoint: 17.0°C (63°F) [RH = 78%]
Pressure (altimeter): 29.97 inches Hg (1015.0 mb)
Winds: calm
Visibility: 6 or more miles (10+ km)
Ceiling: ceiling and visibility are OK
Clouds: unknown
Weather: no significant weather observed at this time

Forecast for: VTPP (PHITSANULOK , TH)
Text: TAF VTPP 232300Z 2400/2424 32005KT 9999 FEW030
Forecast period: 0000 UTC 24 January 2019 to 0000 UTC 25 January 2019
Forecast type: FROM: standard forecast or significant change
Winds: from the NW (320 degrees) at 6 MPH (5 knots; 2.6 m/s)
Visibility: 6 or more miles 10+ km)
Ceiling: at least 12,000 feet AGL
Clouds: few clouds at 3000 feet AGL
Weather: no significant weather forecast for this period